sensor_id;sensor_type;location;lat;lon;timestamp;temperature;humidity
19258;DHT22;9763;48.780;9.212;2022-11-20T00:02:10;9.20;87.90
19258;DHT22;9763;48.780;9.212;2022-11-20T00:05:35;9.20;87.80
19258;DHT22;9763;48.780;9.212;2022-11-20T00:09:00;9.10;87.40
19258;DHT22;9763;48.780;9.212;2022-11-20T00:12:24;9.10;87.70
19258;DHT22;9763;48.780;9.212;2022-11-20T00:15:48;9.00;87.50
19258;DHT22;9763;48.780;9.212;2022-11-20T00:19:19;9.00;87.70
19258;DHT22;9763;48.780;9.212;2022-11-20T00:22:45;9.00;87.90
19258;DHT22;9763;48.780;9.212;2022-11-20T00:26:11;9.00;88.10
19258;DHT22;9763;48.780;9.212;2022-11-20T00:29:37;9.00;88.70
19258;DHT22;9763;48.780;9.212;2022-11-20T00:33:01;9.00;89.20
19258;DHT22;9763;48.780;9.212;2022-11-20T00:36:26;9.00;89.60
19258;DHT22;9763;48.780;9.212;2022-11-20T00:39:53;9.00;89.90
19258;DHT22;9763;48.780;9.212;2022-11-20T00:43:17;9.00;90.00
19258;DHT22;9763;48.780;9.212;2022-11-20T00:46:40;9.00;90.10
19258;DHT22;9763;48.780;9.212;2022-11-20T00:50:04;9.10;90.20
19258;DHT22;9763;48.780;9.212;2022-11-20T00:53:29;9.10;90.50
19258;DHT22;9763;48.780;9.212;2022-11-20T00:56:54;9.10;90.60
19258;DHT22;9763;48.780;9.212;2022-11-20T01:00:18;9.20;90.70
19258;DHT22;9763;48.780;9.212;2022-11-20T01:03:43;9.20;90.80
19258;DHT22;9763;48.780;9.212;2022-11-20T01:07:09;9.20;90.70
19258;DHT22;9763;48.780;9.212;2022-11-20T01:10:33;9.30;90.80
19258;DHT22;9763;48.780;9.212;2022-11-20T01:13:59;9.30;91.00
19258;DHT22;9763;48.780;9.212;2022-11-20T01:17:25;9.40;91.10
19258;DHT22;9763;48.780;9.212;2022-11-20T01:20:48;9.40;91.10
19258;DHT22;9763;48.780;9.212;2022-11-20T01:24:13;9.50;91.10
19258;DHT22;9763;48.780;9.212;2022-11-20T01:27:38;9.50;91.00
19258;DHT22;9763;48.780;9.212;2022-11-20T01:31:11;9.60;91.00
19258;DHT22;9763;48.780;9.212;2022-11-20T01:34:35;9.60;90.70
19258;DHT22;9763;48.780;9.212;2022-11-20T01:37:59;9.60;90.80
19258;DHT22;9763;48.780;9.212;2022-11-20T01:41:23;9.70;90.80
19258;DHT22;9763;48.780;9.212;2022-11-20T01:49:39;9.70;90.30
19258;DHT22;9763;48.780;9.212;2022-11-20T01:53:11;9.70;90.00
19258;DHT22;9763;48.780;9.212;2022-11-20T01:56:39;9.70;89.70
19258;DHT22;9763;48.780;9.212;2022-11-20T02:00:08;9.60;89.00
19258;DHT22;9763;48.780;9.212;2022-11-20T02:03:34;9.60;88.30
19258;DHT22;9763;48.780;9.212;2022-11-20T02:07:02;9.50;87.80
19258;DHT22;9763;48.780;9.212;2022-11-20T02:10:28;9.40;87.50
19258;DHT22;9763;48.780;9.212;2022-11-20T02:13:53;9.40;87.70
19258;DHT22;9763;48.780;9.212;2022-11-20T02:17:17;9.30;87.90
19258;DHT22;9763;48.780;9.212;2022-11-20T02:20:43;9.30;88.40
19258;DHT22;9763;48.780;9.212;2022-11-20T02:24:12;9.30;89.00
19258;DHT22;9763;48.780;9.212;2022-11-20T02:27:38;9.30;89.50
19258;DHT22;9763;48.780;9.212;2022-11-20T02:31:02;9.30;90.30
19258;DHT22;9763;48.780;9.212;2022-11-20T02:34:25;9.30;90.30
19258;DHT22;9763;48.780;9.212;2022-11-20T02:37:52;9.30;90.00
19258;DHT22;9763;48.780;9.212;2022-11-20T02:41:19;9.30;89.50
19258;DHT22;9763;48.780;9.212;2022-11-20T02:44:43;9.30;89.20
19258;DHT22;9763;48.780;9.212;2022-11-20T02:48:07;9.40;89.30
19258;DHT22;9763;48.780;9.212;2022-11-20T02:51:31;9.40;89.40
19258;DHT22;9763;48.780;9.212;2022-11-20T02:54:55;9.30;89.50
19258;DHT22;9763;48.780;9.212;2022-11-20T02:58:20;9.40;89.80
19258;DHT22;9763;48.780;9.212;2022-11-20T03:01:45;9.40;90.00
19258;DHT22;9763;48.780;9.212;2022-11-20T03:05:09;9.40;90.20
19258;DHT22;9763;48.780;9.212;2022-11-20T03:08:32;9.40;90.20
19258;DHT22;9763;48.780;9.212;2022-11-20T03:11:56;9.40;90.20
19258;DHT22;9763;48.780;9.212;2022-11-20T03:15:21;9.50;90.30
19258;DHT22;9763;48.780;9.212;2022-11-20T03:18:45;9.50;90.30
19258;DHT22;9763;48.780;9.212;2022-11-20T03:22:09;9.50;90.50
19258;DHT22;9763;48.780;9.212;2022-11-20T03:25:32;9.60;90.70
19258;DHT22;9763;48.780;9.212;2022-11-20T03:28:57;9.50;90.50
19258;DHT22;9763;48.780;9.212;2022-11-20T03:32:23;9.60;90.40
19258;DHT22;9763;48.780;9.212;2022-11-20T03:35:46;9.50;90.10
19258;DHT22;9763;48.780;9.212;2022-11-20T03:39:10;9.50;90.10
19258;DHT22;9763;48.780;9.212;2022-11-20T03:42:34;9.50;89.50
19258;DHT22;9763;48.780;9.212;2022-11-20T03:46:09;9.50;89.00
19258;DHT22;9763;48.780;9.212;2022-11-20T03:49:34;9.40;88.50
19258;DHT22;9763;48.780;9.212;2022-11-20T03:52:59;9.40;88.50
19258;DHT22;9763;48.780;9.212;2022-11-20T03:56:24;9.30;88.60
19258;DHT22;9763;48.780;9.212;2022-11-20T03:59:49;9.30;88.50
19258;DHT22;9763;48.780;9.212;2022-11-20T04:03:12;9.20;88.10
19258;DHT22;9763;48.780;9.212;2022-11-20T04:06:38;9.50;88.30
19258;DHT22;9763;48.780;9.212;2022-11-20T04:10:01;9.10;87.50
19258;DHT22;9763;48.780;9.212;2022-11-20T04:13:26;9.00;87.20
19258;DHT22;9763;48.780;9.212;2022-11-20T04:16:49;9.00;87.00
19258;DHT22;9763;48.780;9.212;2022-11-20T04:20:13;8.90;87.00
19258;DHT22;9763;48.780;9.212;2022-11-20T04:23:38;8.90;87.70
19258;DHT22;9763;48.780;9.212;2022-11-20T04:27:02;8.80;88.20
19258;DHT22;9763;48.780;9.212;2022-11-20T04:30:26;8.80;88.90
19258;DHT22;9763;48.780;9.212;2022-11-20T04:33:50;8.80;89.30
19258;DHT22;9763;48.780;9.212;2022-11-20T04:37:13;8.80;89.30
19258;DHT22;9763;48.780;9.212;2022-11-20T04:40:38;8.80;89.70
19258;DHT22;9763;48.780;9.212;2022-11-20T04:44:03;8.80;89.80
19258;DHT22;9763;48.780;9.212;2022-11-20T04:47:28;8.90;90.00
19258;DHT22;9763;48.780;9.212;2022-11-20T04:50:52;8.90;90.00
19258;DHT22;9763;48.780;9.212;2022-11-20T04:54:16;8.90;90.00
19258;DHT22;9763;48.780;9.212;2022-11-20T04:57:41;8.90;90.10
19258;DHT22;9763;48.780;9.212;2022-11-20T05:01:06;8.90;90.10
19258;DHT22;9763;48.780;9.212;2022-11-20T05:04:32;8.90;90.10
19258;DHT22;9763;48.780;9.212;2022-11-20T05:07:56;8.90;90.20
19258;DHT22;9763;48.780;9.212;2022-11-20T05:11:20;9.00;90.20
19258;DHT22;9763;48.780;9.212;2022-11-20T05:14:45;9.00;90.30
19258;DHT22;9763;48.780;9.212;2022-11-20T05:18:09;9.00;90.20
19258;DHT22;9763;48.780;9.212;2022-11-20T05:21:33;9.10;90.40
19258;DHT22;9763;48.780;9.212;2022-11-20T05:24:56;9.00;90.50
19258;DHT22;9763;48.780;9.212;2022-11-20T05:28:20;9.10;90.70
19258;DHT22;9763;48.780;9.212;2022-11-20T05:31:45;9.10;90.20
19258;DHT22;9763;48.780;9.212;2022-11-20T05:35:09;9.10;90.30
19258;DHT22;9763;48.780;9.212;2022-11-20T05:38:33;9.10;90.40
19258;DHT22;9763;48.780;9.212;2022-11-20T05:41:56;9.10;90.90
19258;DHT22;9763;48.780;9.212;2022-11-20T05:45:34;9.10;90.70
19258;DHT22;9763;48.780;9.212;2022-11-20T05:48:59;9.10;90.70
19258;DHT22;9763;48.780;9.212;2022-11-20T05:52:22;9.40;90.80
19258;DHT22;9763;48.780;9.212;2022-11-20T05:55:46;9.20;90.70
19258;DHT22;9763;48.780;9.212;2022-11-20T05:59:10;9.20;90.60
19258;DHT22;9763;48.780;9.212;2022-11-20T06:02:34;9.20;90.60
19258;DHT22;9763;48.780;9.212;2022-11-20T06:06:00;9.20;90.60
19258;DHT22;9763;48.780;9.212;2022-11-20T06:09:24;9.30;90.60
19258;DHT22;9763;48.780;9.212;2022-11-20T06:12:48;9.30;90.70
19258;DHT22;9763;48.780;9.212;2022-11-20T06:16:13;9.30;90.70
19258;DHT22;9763;48.780;9.212;2022-11-20T06:19:38;9.30;90.50
19258;DHT22;9763;48.780;9.212;2022-11-20T06:23:03;9.30;90.50
19258;DHT22;9763;48.780;9.212;2022-11-20T06:26:27;9.30;90.40
19258;DHT22;9763;48.780;9.212;2022-11-20T06:29:51;9.30;90.60
19258;DHT22;9763;48.780;9.212;2022-11-20T06:33:14;9.30;90.60
19258;DHT22;9763;48.780;9.212;2022-11-20T06:36:38;9.30;90.60
19258;DHT22;9763;48.780;9.212;2022-11-20T06:40:04;9.30;90.60
19258;DHT22;9763;48.780;9.212;2022-11-20T06:43:28;9.30;90.50
19258;DHT22;9763;48.780;9.212;2022-11-20T06:46:52;9.30;90.40
19258;DHT22;9763;48.780;9.212;2022-11-20T06:50:16;9.30;90.30
19258;DHT22;9763;48.780;9.212;2022-11-20T06:53:39;9.30;90.40
19258;DHT22;9763;48.780;9.212;2022-11-20T06:57:04;9.30;90.90
19258;DHT22;9763;48.780;9.212;2022-11-20T07:00:28;9.30;90.50
19258;DHT22;9763;48.780;9.212;2022-11-20T07:03:52;9.30;90.40
19258;DHT22;9763;48.780;9.212;2022-11-20T07:07:15;9.30;90.50
19258;DHT22;9763;48.780;9.212;2022-11-20T07:10:39;9.30;90.30
19258;DHT22;9763;48.780;9.212;2022-11-20T07:14:04;9.30;90.40
19258;DHT22;9763;48.780;9.212;2022-11-20T07:17:29;9.30;90.40
19258;DHT22;9763;48.780;9.212;2022-11-20T07:20:52;9.30;90.60
19258;DHT22;9763;48.780;9.212;2022-11-20T07:24:16;9.30;90.80
19258;DHT22;9763;48.780;9.212;2022-11-20T07:27:40;9.30;91.00
19258;DHT22;9763;48.780;9.212;2022-11-20T07:31:05;9.40;91.20
19258;DHT22;9763;48.780;9.212;2022-11-20T07:34:29;9.40;91.30
19258;DHT22;9763;48.780;9.212;2022-11-20T07:37:53;9.40;91.50
19258;DHT22;9763;48.780;9.212;2022-11-20T07:41:16;9.50;91.70
19258;DHT22;9763;48.780;9.212;2022-11-20T07:44:40;9.60;91.70
19258;DHT22;9763;48.780;9.212;2022-11-20T07:48:05;9.60;91.60
19258;DHT22;9763;48.780;9.212;2022-11-20T07:51:29;9.70;91.40
19258;DHT22;9763;48.780;9.212;2022-11-20T07:54:52;9.70;91.90
19258;DHT22;9763;48.780;9.212;2022-11-20T07:58:16;9.80;92.10
19258;DHT22;9763;48.780;9.212;2022-11-20T08:01:39;9.90;92.40
19258;DHT22;9763;48.780;9.212;2022-11-20T08:05:05;9.90;92.40
19258;DHT22;9763;48.780;9.212;2022-11-20T08:08:30;9.90;92.40
19258;DHT22;9763;48.780;9.212;2022-11-20T08:11:55;10.00;91.90
19258;DHT22;9763;48.780;9.212;2022-11-20T08:15:38;10.00;91.80
19258;DHT22;9763;48.780;9.212;2022-11-20T08:19:02;10.10;91.70
19258;DHT22;9763;48.780;9.212;2022-11-20T08:22:28;10.10;91.40
19258;DHT22;9763;48.780;9.212;2022-11-20T08:25:51;10.10;90.50
19258;DHT22;9763;48.780;9.212;2022-11-20T08:29:15;10.10;91.10
19258;DHT22;9763;48.780;9.212;2022-11-20T08:32:38;10.10;91.00
19258;DHT22;9763;48.780;9.212;2022-11-20T08:36:03;10.20;91.30
19258;DHT22;9763;48.780;9.212;2022-11-20T08:39:29;10.10;91.40
19258;DHT22;9763;48.780;9.212;2022-11-20T08:42:53;10.10;91.40
19258;DHT22;9763;48.780;9.212;2022-11-20T08:46:17;10.20;92.00
19258;DHT22;9763;48.780;9.212;2022-11-20T08:49:40;10.20;91.60
19258;DHT22;9763;48.780;9.212;2022-11-20T08:53:04;10.20;91.70
19258;DHT22;9763;48.780;9.212;2022-11-20T08:56:30;10.30;91.80
19258;DHT22;9763;48.780;9.212;2022-11-20T08:59:54;10.30;92.10
19258;DHT22;9763;48.780;9.212;2022-11-20T09:03:27;10.40;92.90
19258;DHT22;9763;48.780;9.212;2022-11-20T09:06:54;10.50;93.20
19258;DHT22;9763;48.780;9.212;2022-11-20T09:10:17;10.50;92.70
19258;DHT22;9763;48.780;9.212;2022-11-20T09:13:47;10.60;91.90
19258;DHT22;9763;48.780;9.212;2022-11-20T09:17:11;10.60;91.70
19258;DHT22;9763;48.780;9.212;2022-11-20T09:20:36;10.70;91.60
19258;DHT22;9763;48.780;9.212;2022-11-20T09:24:00;10.90;91.60
19258;DHT22;9763;48.780;9.212;2022-11-20T09:27:23;10.70;91.70
19258;DHT22;9763;48.780;9.212;2022-11-20T09:30:48;10.70;91.30
19258;DHT22;9763;48.780;9.212;2022-11-20T09:34:11;10.70;91.80
19258;DHT22;9763;48.780;9.212;2022-11-20T09:37:35;10.70;91.60
19258;DHT22;9763;48.780;9.212;2022-11-20T09:41:03;10.80;91.40
19258;DHT22;9763;48.780;9.212;2022-11-20T09:44:39;10.80;91.50
19258;DHT22;9763;48.780;9.212;2022-11-20T09:48:25;10.80;90.70
19258;DHT22;9763;48.780;9.212;2022-11-20T09:51:58;10.80;90.60
19258;DHT22;9763;48.780;9.212;2022-11-20T09:55:23;10.80;90.60
19258;DHT22;9763;48.780;9.212;2022-11-20T09:58:50;10.80;91.20
19258;DHT22;9763;48.780;9.212;2022-11-20T10:02:19;10.80;91.80
19258;DHT22;9763;48.780;9.212;2022-11-20T10:05:54;10.80;92.00
19258;DHT22;9763;48.780;9.212;2022-11-20T10:09:23;10.90;91.70
19258;DHT22;9763;48.780;9.212;2022-11-20T10:13:05;10.90;91.00
19258;DHT22;9763;48.780;9.212;2022-11-20T10:16:46;10.90;89.80
19258;DHT22;9763;48.780;9.212;2022-11-20T10:20:25;10.90;90.50
19258;DHT22;9763;48.780;9.212;2022-11-20T10:28:23;10.80;88.90
19258;DHT22;9763;48.780;9.212;2022-11-20T10:32:01;10.70;90.00
19258;DHT22;9763;48.780;9.212;2022-11-20T10:35:32;10.70;90.10
19258;DHT22;9763;48.780;9.212;2022-11-20T10:39:05;10.70;90.10
19258;DHT22;9763;48.780;9.212;2022-11-20T10:42:37;10.60;89.90
19258;DHT22;9763;48.780;9.212;2022-11-20T10:46:10;10.50;89.80
19258;DHT22;9763;48.780;9.212;2022-11-20T10:49:39;10.50;90.40
19258;DHT22;9763;48.780;9.212;2022-11-20T10:53:13;10.40;90.30
19258;DHT22;9763;48.780;9.212;2022-11-20T10:56:48;10.30;90.20
19258;DHT22;9763;48.780;9.212;2022-11-20T11:00:15;10.30;90.40
19258;DHT22;9763;48.780;9.212;2022-11-20T11:03:41;10.20;90.30
19258;DHT22;9763;48.780;9.212;2022-11-20T11:07:12;10.20;90.60
19258;DHT22;9763;48.780;9.212;2022-11-20T11:10:46;10.10;90.90
19258;DHT22;9763;48.780;9.212;2022-11-20T11:14:15;10.10;91.50
19258;DHT22;9763;48.780;9.212;2022-11-20T11:17:46;10.10;91.90
19258;DHT22;9763;48.780;9.212;2022-11-20T11:21:10;10.30;91.60
19258;DHT22;9763;48.780;9.212;2022-11-20T11:24:34;10.10;91.80
19258;DHT22;9763;48.780;9.212;2022-11-20T11:28:18;10.10;91.90
19258;DHT22;9763;48.780;9.212;2022-11-20T11:31:43;10.10;92.20
19258;DHT22;9763;48.780;9.212;2022-11-20T11:35:20;10.20;93.40
19258;DHT22;9763;48.780;9.212;2022-11-20T11:38:51;10.30;94.20
19258;DHT22;9763;48.780;9.212;2022-11-20T11:42:17;9.90;94.40
19258;DHT22;9763;48.780;9.212;2022-11-20T11:45:52;10.50;93.40
19258;DHT22;9763;48.780;9.212;2022-11-20T11:49:18;10.70;92.40
19258;DHT22;9763;48.780;9.212;2022-11-20T11:53:02;10.50;92.10
19258;DHT22;9763;48.780;9.212;2022-11-20T11:56:33;10.50;91.90
19258;DHT22;9763;48.780;9.212;2022-11-20T12:00:02;10.50;92.00
19258;DHT22;9763;48.780;9.212;2022-11-20T12:03:35;10.50;91.90
19258;DHT22;9763;48.780;9.212;2022-11-20T12:07:06;10.50;91.60
19258;DHT22;9763;48.780;9.212;2022-11-20T12:10:59;10.50;92.50
19258;DHT22;9763;48.780;9.212;2022-11-20T12:14:32;10.50;92.40
19258;DHT22;9763;48.780;9.212;2022-11-20T12:17:58;10.50;92.10
19258;DHT22;9763;48.780;9.212;2022-11-20T12:21:31;10.50;92.10
19258;DHT22;9763;48.780;9.212;2022-11-20T12:25:03;10.60;92.30
19258;DHT22;9763;48.780;9.212;2022-11-20T12:28:44;10.60;92.10
19258;DHT22;9763;48.780;9.212;2022-11-20T12:37:02;10.70;93.30
19258;DHT22;9763;48.780;9.212;2022-11-20T12:40:45;10.80;93.90
19258;DHT22;9763;48.780;9.212;2022-11-20T12:44:26;10.90;93.10
19258;DHT22;9763;48.780;9.212;2022-11-20T12:48:42;10.90;91.80
19258;DHT22;9763;48.780;9.212;2022-11-20T12:52:42;10.90;91.30
19258;DHT22;9763;48.780;9.212;2022-11-20T12:56:21;11.00;92.50
19258;DHT22;9763;48.780;9.212;2022-11-20T13:00:08;11.10;90.60
19258;DHT22;9763;48.780;9.212;2022-11-20T13:03:42;11.10;91.40
19258;DHT22;9763;48.780;9.212;2022-11-20T13:07:14;11.40;90.80
19258;DHT22;9763;48.780;9.212;2022-11-20T13:10:47;11.30;88.70
19258;DHT22;9763;48.780;9.212;2022-11-20T13:14:29;11.20;87.80
19258;DHT22;9763;48.780;9.212;2022-11-20T13:18:00;11.20;89.00
19258;DHT22;9763;48.780;9.212;2022-11-20T13:21:37;11.30;90.60
19258;DHT22;9763;48.780;9.212;2022-11-20T13:25:03;11.30;90.60
19258;DHT22;9763;48.780;9.212;2022-11-20T13:28:29;11.40;89.00
19258;DHT22;9763;48.780;9.212;2022-11-20T13:32:03;11.30;86.80
19258;DHT22;9763;48.780;9.212;2022-11-20T13:35:32;11.40;87.40
19258;DHT22;9763;48.780;9.212;2022-11-20T13:38:57;11.30;88.40
19258;DHT22;9763;48.780;9.212;2022-11-20T13:42:26;11.60;90.10
19258;DHT22;9763;48.780;9.212;2022-11-20T13:45:57;11.40;88.80
19258;DHT22;9763;48.780;9.212;2022-11-20T13:49:26;11.40;88.40
19258;DHT22;9763;48.780;9.212;2022-11-20T13:53:00;11.40;85.30
19258;DHT22;9763;48.780;9.212;2022-11-20T13:56:38;11.50;86.70
19258;DHT22;9763;48.780;9.212;2022-11-20T14:00:13;11.40;88.60
19258;DHT22;9763;48.780;9.212;2022-11-20T14:03:40;11.30;88.20
19258;DHT22;9763;48.780;9.212;2022-11-20T14:07:27;11.30;87.30
19258;DHT22;9763;48.780;9.212;2022-11-20T14:11:12;11.30;86.80
19258;DHT22;9763;48.780;9.212;2022-11-20T14:14:48;11.20;86.20
19258;DHT22;9763;48.780;9.212;2022-11-20T14:18:15;11.20;85.30
19258;DHT22;9763;48.780;9.212;2022-11-20T14:21:43;11.10;86.90
19258;DHT22;9763;48.780;9.212;2022-11-20T14:25:19;11.10;87.30
19258;DHT22;9763;48.780;9.212;2022-11-20T14:28:48;11.00;85.90
19258;DHT22;9763;48.780;9.212;2022-11-20T14:32:16;10.90;86.40
19258;DHT22;9763;48.780;9.212;2022-11-20T14:35:45;10.90;86.20
19258;DHT22;9763;48.780;9.212;2022-11-20T14:39:11;10.80;86.80
19258;DHT22;9763;48.780;9.212;2022-11-20T14:42:43;10.80;87.90
19258;DHT22;9763;48.780;9.212;2022-11-20T14:46:10;10.80;88.50
19258;DHT22;9763;48.780;9.212;2022-11-20T14:49:35;10.80;88.70
19258;DHT22;9763;48.780;9.212;2022-11-20T14:53:01;10.70;88.00
19258;DHT22;9763;48.780;9.212;2022-11-20T14:56:24;10.70;87.30
19258;DHT22;9763;48.780;9.212;2022-11-20T14:59:48;10.70;87.50
19258;DHT22;9763;48.780;9.212;2022-11-20T15:03:16;10.60;87.60
19258;DHT22;9763;48.780;9.212;2022-11-20T15:06:49;10.60;87.00
19258;DHT22;9763;48.780;9.212;2022-11-20T15:10:20;10.60;86.80
19258;DHT22;9763;48.780;9.212;2022-11-20T15:13:45;10.60;86.80
19258;DHT22;9763;48.780;9.212;2022-11-20T15:17:10;10.60;87.00
19258;DHT22;9763;48.780;9.212;2022-11-20T15:20:36;10.50;87.00
19258;DHT22;9763;48.780;9.212;2022-11-20T15:24:00;10.50;86.70
19258;DHT22;9763;48.780;9.212;2022-11-20T15:27:23;10.40;86.50
19258;DHT22;9763;48.780;9.212;2022-11-20T15:30:48;10.50;86.40
19258;DHT22;9763;48.780;9.212;2022-11-20T15:34:14;10.40;86.00
19258;DHT22;9763;48.780;9.212;2022-11-20T15:37:40;10.50;86.00
19258;DHT22;9763;48.780;9.212;2022-11-20T15:41:05;10.30;85.70
19258;DHT22;9763;48.780;9.212;2022-11-20T15:44:29;10.20;85.60
19258;DHT22;9763;48.780;9.212;2022-11-20T15:47:53;10.20;85.80
19258;DHT22;9763;48.780;9.212;2022-11-20T15:51:22;10.10;85.70
19258;DHT22;9763;48.780;9.212;2022-11-20T15:54:50;10.10;85.40
19258;DHT22;9763;48.780;9.212;2022-11-20T15:58:14;10.10;85.20
19258;DHT22;9763;48.780;9.212;2022-11-20T16:01:38;10.00;85.10
19258;DHT22;9763;48.780;9.212;2022-11-20T16:05:02;10.00;85.00
19258;DHT22;9763;48.780;9.212;2022-11-20T16:08:26;10.00;85.10
19258;DHT22;9763;48.780;9.212;2022-11-20T16:11:51;9.90;86.30
19258;DHT22;9763;48.780;9.212;2022-11-20T16:15:14;9.90;86.30
19258;DHT22;9763;48.780;9.212;2022-11-20T16:18:56;9.90;86.50
19258;DHT22;9763;48.780;9.212;2022-11-20T16:22:20;9.90;86.60
19258;DHT22;9763;48.780;9.212;2022-11-20T16:25:43;9.80;86.80
19258;DHT22;9763;48.780;9.212;2022-11-20T16:29:09;9.80;87.20
19258;DHT22;9763;48.780;9.212;2022-11-20T16:32:33;9.80;87.40
19258;DHT22;9763;48.780;9.212;2022-11-20T16:35:56;9.80;88.00
19258;DHT22;9763;48.780;9.212;2022-11-20T16:39:20;9.80;88.40
19258;DHT22;9763;48.780;9.212;2022-11-20T16:42:45;9.90;89.10
19258;DHT22;9763;48.780;9.212;2022-11-20T16:46:10;10.00;88.40
19258;DHT22;9763;48.780;9.212;2022-11-20T16:49:33;9.90;89.40
19258;DHT22;9763;48.780;9.212;2022-11-20T16:52:57;10.00;88.50
19258;DHT22;9763;48.780;9.212;2022-11-20T16:56:23;10.00;88.60
19258;DHT22;9763;48.780;9.212;2022-11-20T16:59:47;10.00;88.90
19258;DHT22;9763;48.780;9.212;2022-11-20T17:03:13;10.00;88.80
19258;DHT22;9763;48.780;9.212;2022-11-20T17:06:41;10.00;88.70
19258;DHT22;9763;48.780;9.212;2022-11-20T17:10:06;10.10;88.70
19258;DHT22;9763;48.780;9.212;2022-11-20T17:13:30;10.10;88.90
19258;DHT22;9763;48.780;9.212;2022-11-20T17:17:01;10.10;88.80
19258;DHT22;9763;48.780;9.212;2022-11-20T17:20:26;10.10;88.80
19258;DHT22;9763;48.780;9.212;2022-11-20T17:23:50;10.10;88.60
19258;DHT22;9763;48.780;9.212;2022-11-20T17:27:14;10.30;89.20
19258;DHT22;9763;48.780;9.212;2022-11-20T17:30:38;10.10;89.10
19258;DHT22;9763;48.780;9.212;2022-11-20T17:34:01;10.20;89.10
19258;DHT22;9763;48.780;9.212;2022-11-20T17:37:27;10.10;88.90
19258;DHT22;9763;48.780;9.212;2022-11-20T17:40:50;10.10;88.70
19258;DHT22;9763;48.780;9.212;2022-11-20T17:44:14;10.10;89.00
19258;DHT22;9763;48.780;9.212;2022-11-20T17:47:38;10.10;89.50
19258;DHT22;9763;48.780;9.212;2022-11-20T17:51:03;10.10;88.70
19258;DHT22;9763;48.780;9.212;2022-11-20T17:54:29;10.10;88.50
19258;DHT22;9763;48.780;9.212;2022-11-20T17:57:53;10.10;88.70
19258;DHT22;9763;48.780;9.212;2022-11-20T18:01:18;10.10;88.70
19258;DHT22;9763;48.780;9.212;2022-11-20T18:04:42;10.10;88.50
19258;DHT22;9763;48.780;9.212;2022-11-20T18:08:05;10.10;88.90
19258;DHT22;9763;48.780;9.212;2022-11-20T18:11:32;10.10;89.00
19258;DHT22;9763;48.780;9.212;2022-11-20T18:14:56;10.10;88.70
19258;DHT22;9763;48.780;9.212;2022-11-20T18:18:20;10.10;88.80
19258;DHT22;9763;48.780;9.212;2022-11-20T18:21:43;10.10;88.90
19258;DHT22;9763;48.780;9.212;2022-11-20T18:25:08;10.10;89.00
19258;DHT22;9763;48.780;9.212;2022-11-20T18:28:37;10.10;88.70
19258;DHT22;9763;48.780;9.212;2022-11-20T18:32:01;10.10;88.40
19258;DHT22;9763;48.780;9.212;2022-11-20T18:35:25;10.10;89.20
19258;DHT22;9763;48.780;9.212;2022-11-20T18:38:52;10.10;89.10
19258;DHT22;9763;48.780;9.212;2022-11-20T18:42:17;10.10;89.50
19258;DHT22;9763;48.780;9.212;2022-11-20T18:46:03;10.20;89.40
19258;DHT22;9763;48.780;9.212;2022-11-20T18:49:27;10.20;88.90
19258;DHT22;9763;48.780;9.212;2022-11-20T18:52:51;10.20;89.00
19258;DHT22;9763;48.780;9.212;2022-11-20T18:56:14;10.20;88.50
19258;DHT22;9763;48.780;9.212;2022-11-20T18:59:39;10.10;87.70
19258;DHT22;9763;48.780;9.212;2022-11-20T19:03:04;10.10;87.10
19258;DHT22;9763;48.780;9.212;2022-11-20T19:06:27;10.00;85.80
19258;DHT22;9763;48.780;9.212;2022-11-20T19:09:51;9.90;87.80
19258;DHT22;9763;48.780;9.212;2022-11-20T19:13:15;9.80;86.90
19258;DHT22;9763;48.780;9.212;2022-11-20T19:16:39;9.70;86.80
19258;DHT22;9763;48.780;9.212;2022-11-20T19:20:06;9.60;86.50
19258;DHT22;9763;48.780;9.212;2022-11-20T19:23:30;9.60;86.70
19258;DHT22;9763;48.780;9.212;2022-11-20T19:26:54;9.50;86.20
19258;DHT22;9763;48.780;9.212;2022-11-20T19:30:18;9.40;85.70
19258;DHT22;9763;48.780;9.212;2022-11-20T19:33:43;9.30;86.30
19258;DHT22;9763;48.780;9.212;2022-11-20T19:37:09;9.30;87.00
19258;DHT22;9763;48.780;9.212;2022-11-20T19:40:33;9.20;87.10
19258;DHT22;9763;48.780;9.212;2022-11-20T19:44:02;11.10;88.00
19258;DHT22;9763;48.780;9.212;2022-11-20T19:47:27;9.10;87.80
19258;DHT22;9763;48.780;9.212;2022-11-20T19:51:12;9.10;88.50
19258;DHT22;9763;48.780;9.212;2022-11-20T19:54:39;9.10;88.70
19258;DHT22;9763;48.780;9.212;2022-11-20T19:58:03;9.10;88.50
19258;DHT22;9763;48.780;9.212;2022-11-20T20:01:28;9.10;89.00
19258;DHT22;9763;48.780;9.212;2022-11-20T20:04:53;9.10;88.70
19258;DHT22;9763;48.780;9.212;2022-11-20T20:08:16;9.10;87.60
19258;DHT22;9763;48.780;9.212;2022-11-20T20:11:44;9.10;87.50
19258;DHT22;9763;48.780;9.212;2022-11-20T20:15:09;9.10;87.00
19258;DHT22;9763;48.780;9.212;2022-11-20T20:18:33;9.00;87.60
19258;DHT22;9763;48.780;9.212;2022-11-20T20:21:57;9.00;88.20
19258;DHT22;9763;48.780;9.212;2022-11-20T20:25:22;9.00;88.40
19258;DHT22;9763;48.780;9.212;2022-11-20T20:28:47;9.00;88.40
19258;DHT22;9763;48.780;9.212;2022-11-20T20:32:11;9.00;88.50
19258;DHT22;9763;48.780;9.212;2022-11-20T20:35:39;9.00;88.10
19258;DHT22;9763;48.780;9.212;2022-11-20T20:39:03;9.00;88.50
19258;DHT22;9763;48.780;9.212;2022-11-20T20:42:28;9.00;88.80
19258;DHT22;9763;48.780;9.212;2022-11-20T20:45:54;9.00;88.80
19258;DHT22;9763;48.780;9.212;2022-11-20T20:49:18;9.00;88.80
19258;DHT22;9763;48.780;9.212;2022-11-20T20:52:42;9.00;88.00
19258;DHT22;9763;48.780;9.212;2022-11-20T20:56:06;8.90;88.20
19258;DHT22;9763;48.780;9.212;2022-11-20T20:59:30;8.90;88.20
19258;DHT22;9763;48.780;9.212;2022-11-20T21:02:55;8.90;88.00
19258;DHT22;9763;48.780;9.212;2022-11-20T21:06:20;8.80;87.40
19258;DHT22;9763;48.780;9.212;2022-11-20T21:09:44;8.80;87.40
19258;DHT22;9763;48.780;9.212;2022-11-20T21:13:08;8.70;87.90
19258;DHT22;9763;48.780;9.212;2022-11-20T21:16:32;8.70;87.90
19258;DHT22;9763;48.780;9.212;2022-11-20T21:20:04;8.70;87.80
19258;DHT22;9763;48.780;9.212;2022-11-20T21:23:49;8.70;87.90
19258;DHT22;9763;48.780;9.212;2022-11-20T21:27:14;8.70;87.50
19258;DHT22;9763;48.780;9.212;2022-11-20T21:30:38;8.60;88.10
19258;DHT22;9763;48.780;9.212;2022-11-20T21:34:02;8.60;88.60
19258;DHT22;9763;48.780;9.212;2022-11-20T21:37:27;8.60;87.60
19258;DHT22;9763;48.780;9.212;2022-11-20T21:40:50;8.60;87.10
19258;DHT22;9763;48.780;9.212;2022-11-20T21:44:14;8.60;86.40
19258;DHT22;9763;48.780;9.212;2022-11-20T21:47:52;8.50;86.00
19258;DHT22;9763;48.780;9.212;2022-11-20T21:51:17;8.50;86.40
19258;DHT22;9763;48.780;9.212;2022-11-20T21:54:47;8.40;86.40
19258;DHT22;9763;48.780;9.212;2022-11-20T21:58:10;8.40;86.10
19258;DHT22;9763;48.780;9.212;2022-11-20T22:01:34;8.40;86.70
19258;DHT22;9763;48.780;9.212;2022-11-20T22:04:58;8.40;87.60
19258;DHT22;9763;48.780;9.212;2022-11-20T22:08:22;8.30;87.70
19258;DHT22;9763;48.780;9.212;2022-11-20T22:11:47;8.30;88.20
19258;DHT22;9763;48.780;9.212;2022-11-20T22:15:11;8.40;87.20
19258;DHT22;9763;48.780;9.212;2022-11-20T22:18:34;8.30;87.30
19258;DHT22;9763;48.780;9.212;2022-11-20T22:21:59;8.40;88.00
19258;DHT22;9763;48.780;9.212;2022-11-20T22:25:22;8.40;88.40
19258;DHT22;9763;48.780;9.212;2022-11-20T22:28:47;8.40;89.00
19258;DHT22;9763;48.780;9.212;2022-11-20T22:32:12;8.40;88.90
19258;DHT22;9763;48.780;9.212;2022-11-20T22:35:35;8.40;89.50